Time;durP1;ratioP1;P1;durP2;ratioP2;P2;SDS_P1;SDS_P2;PMS_P1;PMS_P2;Temp;Humidity;BMP_temperature;BMP_pressure;BME280_temperature;BME280_humidity;BME280_pressure;Samples;Min_cycle;Max_cycle;Signal;HPM_P1;HPM_P2
2022/10/19 00:01:25;;;;;;;;;;;;;;;12.71;91.30;99049.28;5068112;28;19931;-55
2022/10/19 00:03:55;;;;;;;;;;;;;;;12.72;91.39;99056.34;5067660;28;19951;-56
2022/10/19 00:06:24;;;;;;;;;;;;;;;12.50;91.13;99055.06;5072290;28;19924;-56
2022/10/19 00:08:53;;;;;;;;;;;;;;;12.59;91.05;99052.47;5073136;28;20448;-56
2022/10/19 00:11:21;;;;;;;;;;;;;;;12.64;90.63;99051.59;5055408;28;20691;-56
2022/10/19 00:13:48;;;;;;;;;;;;;;;12.58;90.38;99046.22;5074641;28;19924;-55
2022/10/19 00:16:16;;;;;;;;;;;;;;;12.57;90.50;99049.25;5067205;28;19925;-56
2022/10/19 00:18:44;;;;;;;;;;;;;;;12.52;90.34;99052.88;5072669;28;19952;-56
2022/10/19 00:21:15;;;;;;;;;;;;;;;12.43;90.76;99051.91;5072588;28;20320;-56
2022/10/19 00:23:43;;;;;;;;;;;;;;;12.48;90.33;99057.28;5052787;28;20286;-56
2022/10/19 00:26:12;;;;;;;;;;;;;;;12.47;90.47;99063.03;5072798;28;19924;-55
2022/10/19 00:28:40;;;;;;;;;;;;;;;12.45;90.42;99062.50;5073480;28;19943;-55
2022/10/19 00:31:10;;;;;;;;;;;;;;;12.50;89.96;99057.78;5067063;28;19924;-56
2022/10/19 00:33:38;;;;;;;;;;;;;;;12.43;90.39;99067.44;5067311;28;20408;-55
2022/10/19 00:36:07;;;;;;;1369.32;474.60;;;;;;;12.46;90.14;99059.47;5050338;28;20433;-55
2022/10/19 00:38:36;;;;;;;468.77;249.23;;;;;;;12.46;90.22;99064.91;5067645;28;20438;-56
2022/10/19 00:41:04;;;;;;;;;;;;;;;12.48;90.23;99061.91;5064189;28;20474;-56
2022/10/19 00:43:32;;;;;;;;;;;;;;;12.21;91.13;99063.38;5070881;28;20430;-56
2022/10/19 00:46:00;;;;;;;;;;;;;;;12.36;91.18;99065.09;5066621;28;19930;-56
2022/10/19 00:48:30;;;;;;;;;;;;;;;12.39;91.08;99061.75;5071943;28;19994;-55
2022/10/19 00:51:22;;;;;;;;;;;;;;;12.42;91.16;99058.47;5088301;28;19920;-55
2022/10/19 00:53:52;;;;;;;;;;;;;;;12.40;91.35;99055.19;5077212;28;19920;-55
2022/10/19 00:56:20;;;;;;;;;;;;;;;12.39;91.22;99061.75;5071389;28;19924;-55
2022/10/19 00:58:47;;;;;;;;;;;;;;;12.32;91.22;99055.88;5073563;28;19927;-55
2022/10/19 01:01:16;;;;;;;;;;;;;;;12.26;91.70;99055.16;5042274;28;20370;-56
2022/10/19 01:03:44;;;;;;;;;;;;;;;12.17;91.85;99045.19;5051648;28;20023;-55
2022/10/19 01:06:12;;;;;;;;;;;;;;;12.29;92.00;99051.00;5053689;28;19927;-56
2022/10/19 01:08:40;;;;;;;;;;;;;;;12.13;92.49;99049.59;5049867;28;19927;-56
2022/10/19 01:11:14;;;;;;;;;;;;;;;12.23;92.29;99046.75;5056403;28;20011;-56
2022/10/19 01:13:44;;;;;;;;;;;;;;;12.24;92.20;99045.63;5046401;28;20574;-55
2022/10/19 01:16:12;;;;;;;;;;;;;;;12.29;92.38;99053.72;5055907;28;19920;-55
2022/10/19 01:18:41;;;;;;;;;;;;;;;12.13;92.45;99050.41;5065262;28;19928;-55
2022/10/19 01:21:27;;;;;;;;;;;;;;;11.96;93.67;99056.38;5071213;28;20332;-56
2022/10/19 01:24:03;;;;;;;;;;;;;;;12.09;94.35;99054.00;5071061;28;19935;-55
2022/10/19 01:26:41;;;;;;;;;;;;;;;12.07;94.42;99046.13;5065805;28;19920;-55
2022/10/19 01:29:11;;;;;;;;;;;;;;;12.00;94.29;99046.50;5069589;28;19931;-56
2022/10/19 01:31:41;;;;;;;;;;;;;;;12.03;94.22;99039.66;5065136;28;19927;-56
2022/10/19 01:34:34;;;;;;;;;;;;;;;12.00;94.32;99037.53;5069528;28;20336;-55
2022/10/19 01:37:03;;;;;;;;;;;;;;;11.85;94.80;99049.44;5071604;28;20298;-56
2022/10/19 01:39:32;;;;;;;;;;;;;;;11.85;94.57;99035.81;5065175;28;19920;-56
2022/10/19 01:42:29;;;;;;;5.43;1.95;;;;;;;11.99;94.10;99049.53;5069578;28;20428;-55
2022/10/19 01:45:04;;;;;;;278.63;97.30;;;;;;;11.88;94.04;99040.69;5050484;28;20424;-56
2022/10/19 01:47:34;;;;;;;;;;;;;;;11.84;93.64;99036.91;5044429;28;20412;-56
2022/10/19 01:50:06;;;;;;;1330.85;440.00;;;;;;;11.78;94.00;99041.59;5045693;28;20473;-55
2022/10/19 01:52:35;;;;;;;;;;;;;;;11.74;94.08;99045.19;5056731;28;20846;-56
2022/10/19 01:55:03;;;;;;;;;;;;;;;11.61;94.50;99037.69;5053808;28;19924;-56
2022/10/19 01:57:32;;;;;;;;;;;;;;;11.72;94.10;99039.22;5043322;28;19943;-56
2022/10/19 02:00:25;;;;;;;;;;;;;;;11.68;94.30;99038.19;5049713;28;19924;-55
2022/10/19 02:02:54;;;;;;;;;;;;;;;11.70;94.13;99027.81;5061246;28;19943;-55
2022/10/19 02:05:23;;;;;;;;;;;;;;;11.72;94.11;99020.19;5047958;28;19928;-57
2022/10/19 02:07:58;;;;;;;;;;;;;;;11.80;93.92;99033.13;5048915;28;19920;-55
2022/10/19 02:10:26;;;;;;;;;;;;;;;11.87;93.42;99025.44;5051892;28;19924;-56
2022/10/19 02:12:54;;;;;;;;;;;;;;;11.94;93.20;99027.81;5053248;28;20269;-56
2022/10/19 02:15:23;;;;;;;;;;;;;;;12.02;92.91;99022.50;5045269;28;23319;-56
2022/10/19 02:17:54;;;;;;;;;;;;;;;11.99;93.29;99009.50;5069765;28;19932;-56
2022/10/19 02:20:23;;;;;;;;;;;;;;;11.92;93.48;99011.75;5072225;28;19924;-57
2022/10/19 02:22:51;;;;;;;;;;;;;;;11.93;93.46;99009.84;5052517;28;19931;-55
2022/10/19 02:25:19;;;;;;;;;;;;;;;11.98;93.56;99002.41;5070743;28;19920;-56
2022/10/19 02:27:47;;;;;;;;;;;;;;;11.96;93.27;98996.44;5070111;28;20277;-56
2022/10/19 02:30:41;;;;;;;;;;;;;;;12.05;93.41;98996.59;5060082;28;19960;-56
2022/10/19 02:33:11;;;;;;;;;;;;;;;11.93;93.37;98996.22;5068900;28;19920;-56
2022/10/19 02:35:40;;;;;;;;;;;;;;;12.01;94.02;98999.09;5070753;28;19927;-56
2022/10/19 02:38:08;;;;;;;;;;;;;;;12.00;93.80;98992.03;5069668;28;19927;-56
2022/10/19 02:40:37;;;;;;;;;;;;;;;11.97;94.05;98995.34;5070624;28;19929;-56
2022/10/19 02:43:10;;;;;;;;;;;;;;;11.69;94.85;98998.97;5071311;28;19920;-56
2022/10/19 02:45:39;;;;;;;;;;;;;;;11.65;95.21;98996.00;5066965;28;19921;-56
2022/10/19 02:48:07;;;;;;;;;;;;;;;11.64;95.47;99008.00;5068455;28;19927;-56
2022/10/19 02:50:35;;;;;;;;;;;;;;;11.72;96.12;98999.19;5070731;28;19927;-56
2022/10/19 02:53:05;;;;;;;;;;;;;;;11.55;96.14;98996.94;5079472;28;19928;-56
2022/10/19 02:55:33;;;;;;;;;;;;;;;11.72;96.25;98995.69;5071275;28;19920;-56
2022/10/19 02:58:01;;;;;;;;;;;;;;;11.83;96.12;98997.19;5079674;28;19932;-56
2022/10/19 03:00:29;;;;;;;;;;;;;;;11.85;95.59;98994.16;5067439;28;19999;-56
2022/10/19 03:02:56;;;;;;;;;;;;;;;11.86;95.69;98995.78;5074859;28;19963;-56
2022/10/19 03:05:24;;;;;;;;;;;;;;;11.84;95.65;99001.53;5070192;28;20620;-56
2022/10/19 03:07:52;;;;;;;;;;;;;;;11.88;95.42;98999.84;5074446;28;19934;-56
2022/10/19 03:10:22;;;;;;;;;;;;;;;11.94;95.38;98989.69;5074440;28;19931;-56
2022/10/19 03:12:49;;;;;;;;;;;;;;;11.92;95.56;98995.41;5074300;28;19924;-56
2022/10/19 03:15:17;;;;;;;;;;;;;;;11.93;95.53;98985.31;5069929;28;20331;-57
2022/10/19 03:17:45;;;;;;;;;;;;;;;11.97;95.21;98983.63;5080999;28;20285;-56
2022/10/19 03:20:13;;;;;;;;;;;;;;;12.01;95.21;98982.75;5072242;28;20322;-57
2022/10/19 03:22:41;;;;;;;;;;;;;;;11.97;95.26;98989.09;5057477;28;19924;-56
2022/10/19 03:25:09;;;;;;;;;;;;;;;11.99;95.20;98990.44;5079322;28;19921;-56
2022/10/19 03:28:01;;;;;;;;;;;;;;;12.03;95.09;98991.44;5076095;28;19927;-56
2022/10/19 03:30:54;;;;;;;;;;;;;;;12.06;94.88;98979.16;5075411;28;19920;-56
2022/10/19 03:33:22;;;;;;;;;;;;;;;12.11;94.84;98981.00;5073942;28;20281;-56
2022/10/19 03:36:14;;;;;;;;;;;;;;;12.17;94.49;98982.53;5073919;28;19920;-56
2022/10/19 03:38:45;;;;;;;;;;;;;;;12.20;94.37;98979.25;5072707;28;19982;-56
2022/10/19 03:41:38;;;;;;;;;;;;;;;12.16;94.02;98983.66;5073591;28;19924;-56
2022/10/19 03:44:06;;;;;;;;;;;;;;;12.20;93.93;98984.69;5086657;28;19920;-56
2022/10/19 03:46:36;;;;;;;;;;;;;;;12.19;93.85;98980.31;5068538;28;19921;-56
2022/10/19 03:49:04;;;;;;;;;;;;;;;12.27;93.55;98983.19;5073771;28;19921;-56
2022/10/19 03:51:32;;;;;;;;;;;;;;;12.10;93.36;98987.56;5054522;28;19920;-56
2022/10/19 03:54:00;;;;;;;;;;;;;;;11.99;93.90;98984.16;5071065;28;19927;-56
2022/10/19 03:56:29;;;;;;;;;;;;;;;12.13;93.65;98990.47;5080994;28;20293;-56
2022/10/19 03:58:57;;;;;;;;;;;;;;;12.16;93.23;98989.09;5076910;28;19928;-56
2022/10/19 04:01:26;;;;;;;;;;;;;;;12.23;93.04;98986.81;5074311;28;19927;-56
2022/10/19 04:03:55;;;;;;;;;;;;;;;12.06;93.75;98982.69;5071290;28;19920;-56
2022/10/19 04:06:27;;;;;;;;;;;;;;;12.03;93.74;98979.72;5066443;28;20396;-56
2022/10/19 04:08:55;;;;;;;;;;;;;;;12.14;93.17;98983.91;5061659;28;20350;-56
2022/10/19 04:11:24;;;;;;;;;;;;;;;12.23;93.01;98984.06;5071612;28;20361;-56
2022/10/19 04:13:52;;;;;;;;;;;;;;;12.28;92.73;98982.09;5068999;28;19968;-56
2022/10/19 04:16:21;;;;;;;;;;;;;;;12.24;92.63;98975.59;5066487;28;20376;-56
2022/10/19 04:18:49;;;;;;;;;;;;;;;12.19;92.57;98977.59;5071815;28;19927;-56
2022/10/19 04:21:21;;;;;;;;;;;;;;;12.20;92.44;98973.78;5087086;28;19926;-56
2022/10/19 04:23:49;;;;;;;;;;;;;;;11.99;93.56;98979.53;5053481;28;19920;-56
2022/10/19 04:26:17;;;;;;;;;;;;;;;12.07;93.39;98981.56;5071341;28;20019;-56
2022/10/19 04:28:45;;;;;;;;;;;;;;;12.10;93.32;98982.13;5073037;28;21404;-56
2022/10/19 04:31:13;;;;;;;;;;;;;;;12.03;93.46;98980.53;5078607;28;20015;-56
2022/10/19 04:34:07;;;;;;;;;;;;;;;12.09;92.78;98977.75;5066471;28;20409;-56
2022/10/19 04:39:28;;;;;;;;;;;;;;;11.86;93.15;98979.44;5054768;28;20349;-56
2022/10/19 04:41:58;;;;;;;;;;;;;;;11.84;93.42;98982.47;5072606;28;19920;-56
2022/10/19 04:44:26;;;;;;;;;;;;;;;11.76;93.67;98972.19;5067556;28;19921;-56
2022/10/19 04:47:00;;;;;;;;;;;;;;;11.86;93.22;98974.81;5065961;28;19927;-56
2022/10/19 04:52:23;;;;;;;;;;;;;;;11.61;94.01;98975.09;5052908;28;20338;-56
2022/10/19 04:54:53;;;;;;;;;;;;;;;11.58;94.05;98978.44;5050327;28;20463;-56
2022/10/19 04:57:21;;;;;;;;;;;;;;;11.44;94.12;98979.13;5060074;28;19928;-56
2022/10/19 04:59:49;;;;;;;;;;;;;;;11.38;94.14;98979.47;5055577;28;20342;-56
2022/10/19 05:02:17;;;;;;;;;;;;;;;11.37;94.85;98965.06;5041071;28;19931;-56
2022/10/19 05:04:45;;;;;;;;;;;;;;;11.41;94.65;98968.84;5050687;28;19927;-56
2022/10/19 05:07:13;;;;;;;;;;;;;;;11.50;94.48;98961.66;5051579;28;19921;-56
2022/10/19 05:12:34;;;;;;;;;;;;;;;10.95;95.02;98961.19;5050352;28;19920;-56
2022/10/19 05:15:02;;;;;;;;;;;;;;;11.07;94.40;98951.81;5049440;28;19924;-56
2022/10/19 05:17:31;;;;;;;;;;;;;;;11.00;94.34;98952.16;5046430;28;20289;-56
2022/10/19 05:19:59;;;;;;;;;;;;;;;10.98;94.48;98957.91;5050182;28;19975;-56
2022/10/19 05:22:29;;;;;;;;;;;;;;;10.96;94.07;98957.34;5050789;28;20251;-56
2022/10/19 05:24:58;;;;;;;;;;;;;;;10.93;93.82;98954.41;5050312;28;19925;-56
2022/10/19 05:27:25;;;;;;;;;;;;;;;10.90;94.28;98957.69;5051279;28;19920;-56
2022/10/19 05:29:54;;;;;;;;;;;;;;;10.86;94.79;98951.22;5051513;28;19921;-60
2022/10/19 05:32:22;;;;;;;;;;;;;;;11.02;94.77;98956.22;5046136;28;19936;-57
2022/10/19 05:34:50;;;;;;;;;;;;;;;11.12;94.36;98959.91;5046214;28;20267;-56
2022/10/19 05:37:21;;;;;;;;;;;;;;;11.07;94.20;98968.13;5047513;28;19921;-56
2022/10/19 05:39:48;;;;;;;;;;;;;;;10.99;94.15;98962.22;5051495;28;19974;-56
2022/10/19 05:42:20;;;;;;;;;;;;;;;11.03;94.26;98973.34;5051538;28;20435;-56
2022/10/19 05:44:49;;;;;;;;;;;;;;;10.96;94.17;98962.78;5050489;28;20358;-56
2022/10/19 05:47:18;;;;;;;;;;;;;;;11.01;94.23;98968.19;5046699;28;19921;-56
2022/10/19 05:49:47;;;;;;;;;;;;;;;11.09;94.28;98966.75;5046988;28;19963;-56
2022/10/19 05:52:16;;;;;;;;;;;;;;;11.05;93.96;98981.22;5050863;28;20289;-56
2022/10/19 05:54:44;;;;;;;;;;;;;;;11.02;94.07;98977.16;5063494;28;19920;-56
2022/10/19 05:57:12;;;;;;;;;;;;;;;11.11;94.12;98975.44;5079438;28;19943;-56
2022/10/19 05:59:41;;;;;;;;;;;;;;;11.09;93.63;98977.63;5053509;28;19920;-56
2022/10/19 06:02:10;;;;;;;;;;;;;;;10.98;93.25;98982.38;5061143;28;20427;-56
2022/10/19 06:04:43;;;;;;;;;;;;;;;10.66;93.51;98980.22;5051541;28;20312;-56
2022/10/19 06:07:11;;;;;;;;;;;;;;;10.90;93.87;98977.53;5049882;28;19927;-56
2022/10/19 06:09:38;;;;;;;;;;;;;;;11.03;93.89;98984.22;5037242;28;19955;-56
2022/10/19 06:12:07;;;;;;;;;;;;;;;10.98;94.33;98981.56;5051032;28;19943;-56
2022/10/19 06:14:35;;;;;;;;;;;;;;;10.96;94.25;98981.00;5051089;28;19936;-56
2022/10/19 06:17:05;;;;;;;;;;;;;;;10.99;94.15;98983.97;5035542;28;19928;-56
2022/10/19 06:19:33;;;;;;;;;;;;;;;10.97;93.68;98985.34;5050907;28;20366;-56
2022/10/19 06:22:03;;;;;;;;;;;;;;;10.87;93.57;98994.44;5047382;28;20286;-56
2022/10/19 06:24:57;;;;;;;;;;;;;;;10.88;94.36;98998.78;5045469;28;21440;-56
2022/10/19 06:27:25;;;;;;;;;;;;;;;11.06;94.07;98996.44;5046464;28;19920;-56
2022/10/19 06:29:53;;;;;;;;;;;;;;;11.14;94.40;99001.25;5050038;28;19955;-56
2022/10/19 06:32:22;;;;;;;;;;;;;;;11.17;94.39;99003.38;5030013;28;19921;-56
2022/10/19 06:34:50;;;;;;;;;;;;;;;11.17;94.13;99004.19;5046197;28;19921;-56
2022/10/19 06:37:22;;;;;;;;;;;;;;;11.14;94.30;99006.69;5026092;28;19932;-57
2022/10/19 06:39:50;;;;;;;;;;;;;;;11.19;94.19;99009.34;5029877;28;19925;-56
2022/10/19 06:42:18;;;;;;;;;;;;;;;11.15;93.85;99008.31;5050898;28;19947;-56
2022/10/19 06:44:49;;;;;;;;;;;;;;;11.16;93.91;99010.72;5050677;28;20427;-56
2022/10/19 06:47:18;;;;;;;;;;;;;;;11.09;93.63;99001.31;5062906;28;19920;-56
2022/10/19 06:49:48;;;;;;;;;;;;;;;11.15;93.45;99006.38;5070150;28;20011;-56
2022/10/19 06:52:16;;;;;;;;;;;;;;;11.01;92.78;99008.16;5071224;28;19920;-56
2022/10/19 06:54:44;;;;;;;;;;;;;;;10.77;93.65;98997.25;5069190;28;19954;-56
2022/10/19 06:57:12;;;;;;;;;;;;;;;10.88;93.65;99004.22;5072334;28;19959;-56
2022/10/19 06:59:39;;;;;;;;;;;;;;;11.02;93.34;99009.78;5071354;28;19981;-56
2022/10/19 07:02:07;;;;;;;;;;;;;;;11.01;92.49;99008.16;5063737;28;19920;-56
2022/10/19 07:04:35;;;;;;;;;;;;;;;11.08;92.32;99002.38;5067873;28;20282;-56
2022/10/19 07:07:04;;;;;;;;;;;;;;;11.04;92.47;99004.06;5053005;28;20023;-56
2022/10/19 07:09:32;;;;;;;;;;;;;;;11.15;92.40;99008.31;5070240;28;19921;-56
2022/10/19 07:12:00;;;;;;;;;;;;;;;11.25;92.24;99013.63;5068684;28;19920;-56
2022/10/19 07:14:29;;;;;;;;;;;;;;;11.19;91.69;99010.16;5069538;28;19924;-56
2022/10/19 07:16:57;;;;;;;;;;;;;;;11.27;90.92;99014.16;5063071;28;20375;-56
2022/10/19 07:19:25;;;;;;;;;;;;;;;11.38;91.24;99020.28;5067243;28;19946;-56
2022/10/19 07:21:54;;;;;;;;;;;;;;;11.24;90.95;99022.91;5068672;28;19928;-56
2022/10/19 07:24:23;;;;;;;;;;;;;;;11.23;91.47;99015.81;5048214;28;19999;-56
2022/10/19 07:26:51;;;;;;;;;;;;;;;11.35;91.17;99024.41;5062151;28;19920;-56
2022/10/19 07:29:19;;;;;;;;;;;;;;;11.21;90.42;99023.47;5069463;28;19928;-56
2022/10/19 07:32:12;;;;;;;;;;;;;;;11.31;91.12;99028.00;5062275;28;20541;-56
2022/10/19 07:34:40;;;;;;;;;;;;;;;11.37;91.43;99027.66;5067321;28;19928;-56
2022/10/19 07:37:33;;;;;;;;;;;;;;;11.35;91.01;99029.03;5065238;28;19921;-56
2022/10/19 07:40:03;;;;;;;;;;;;;;;11.52;90.89;99030.19;5067876;28;19924;-56
2022/10/19 07:42:31;;;;;;;;;;;;;;;11.54;90.20;99032.63;5072480;28;19921;-56
2022/10/19 07:44:59;;;;;;;;;;;;;;;11.48;90.09;99029.16;5072682;28;19920;-56
2022/10/19 07:47:27;;;;;;;;;;;;;;;11.55;89.59;99029.59;5058099;28;19927;-56
2022/10/19 07:49:55;;;;;;;;;;;;;;;11.75;89.59;99025.81;5073011;28;19928;-56
2022/10/19 07:52:23;;;;;;;;;;;;;;;11.60;89.34;99026.00;5085042;28;19924;-56
2022/10/19 07:54:51;;;;;;;;;;;;;;;11.69;89.47;99029.72;5067307;28;19948;-56
2022/10/19 07:57:21;;;;;;;;;;;;;;;11.76;89.15;99034.81;5071512;28;19930;-56
2022/10/19 07:59:49;;;;;;;;;;;;;;;11.67;89.00;99040.09;5072845;28;19959;-56
2022/10/19 08:02:16;;;;;;;;;;;;;;;11.79;88.75;99040.47;5079772;28;19924;-56
2022/10/19 08:04:45;;;;;;;;;;;;;;;11.89;88.45;99036.06;5070476;28;19924;-56
2022/10/19 08:07:27;;;;;;;;;;;;;;;11.86;88.17;99039.34;5088288;28;19936;-56
2022/10/19 08:09:55;;;;;;;;;;;;;;;11.84;87.96;99042.38;5064398;28;19929;-56
2022/10/19 08:12:25;;;;;;;;;;;;;;;11.82;87.92;99039.09;5070630;28;19921;-56
2022/10/19 08:14:53;;;;;;;;;;;;;;;11.73;88.04;99046.28;5057769;28;19925;-56
2022/10/19 08:17:20;;;;;;;;;;;;;;;11.71;nan;99049.28;5066539;28;19924;-56
2022/10/19 08:19:49;;;;;;;;;;;;;;;11.74;88.39;99045.19;5071544;28;20377;-56
2022/10/19 08:22:17;;;;;;;;;;;;;;;11.67;88.36;99047.47;5069950;28;20396;-56
2022/10/19 08:24:45;;;;;;;;;;;;;;;11.56;88.46;99041.31;5064054;28;19932;-56
2022/10/19 08:27:13;;;;;;;;;;;;;;;11.54;88.69;99038.06;5053608;28;20027;-56
2022/10/19 08:29:43;;;;;;;;;;;;;;;11.75;88.29;99049.53;5070566;28;20392;-56
2022/10/19 08:32:11;;;;;;;;;;;;;;;11.68;87.88;99049.06;5029835;28;20378;-56
2022/10/19 08:34:40;;;;;;;;;;;;;;;11.67;88.76;99050.19;5053294;28;20370;-56
2022/10/19 08:37:08;;;;;;;;;;;;;;;11.73;88.48;99049.00;5052033;28;19924;-56
2022/10/19 08:39:46;;;;;;;;;;;;;;;11.73;88.81;99047.09;5050130;28;19920;-56
2022/10/19 08:42:16;;;;;;;;;;;;;;;11.76;89.15;99040.25;5052718;28;19924;-56
2022/10/19 08:45:17;;;;;;;;;;;;;;;11.84;88.68;99041.56;5051353;28;20328;-56
2022/10/19 08:47:49;;;;;;;;;;;;;;;11.79;88.50;99039.69;5052165;28;19924;-56
2022/10/19 08:50:19;;;;;;;;;;;;;;;11.66;88.80;99037.66;5054028;28;20369;-56
2022/10/19 08:52:48;;;;;;;;;;;;;;;11.48;88.67;99025.63;5077313;28;19921;-56
2022/10/19 08:55:17;;;;;;;;;;;;;;;11.64;89.01;99031.69;5069495;28;20013;-56
2022/10/19 08:57:49;;;;;;;;;;;;;;;11.77;88.89;99030.97;5053071;28;19920;-56
2022/10/19 09:00:19;;;;;;;;;;;;;;;11.73;87.82;99040.84;5066121;28;19924;-56
2022/10/19 09:03:16;;;;;;;;;;;;;;;11.75;88.11;99039.44;5070609;28;20046;-56
2022/10/19 09:05:50;;;;;;;;;;;;;;;11.75;88.35;99050.31;5050305;28;19921;-56
2022/10/19 09:08:18;;;;;;;;;;;;;;;11.71;88.61;99049.28;5069049;28;20424;-56
2022/10/19 09:10:49;;;;;;;;;;;;;;;11.72;88.51;99050.13;5063436;28;20280;-56
2022/10/19 09:13:18;;;;;;;;;;;;;;;11.71;88.40;99051.19;5068997;28;19925;-56
2022/10/19 09:15:48;;;;;;;;;;;;;;;11.75;88.28;99050.31;5066386;28;20359;-56
2022/10/19 09:18:19;;;;;;;;;;;;;;;11.94;87.76;99050.41;5071816;28;20027;-56
2022/10/19 09:20:47;;;;;;;;;;;;;;;12.01;87.70;99053.56;5052324;28;19924;-56
2022/10/19 09:23:19;;;;;;;;;;;;;;;12.10;86.97;99045.56;5071516;28;19933;-56
2022/10/19 09:25:47;;;;;;;;;;;;;;;12.18;86.60;99047.63;5070809;28;20066;-56
2022/10/19 09:28:17;;;;;;;;;;;;;;;12.09;87.20;99048.56;5053880;28;19928;-56
2022/10/19 09:30:47;;;;;;;;;;;;;;;12.21;86.39;99052.50;5063232;28;19928;-56
2022/10/19 09:33:16;;;;;;;;;;;;;;;12.14;86.55;99052.03;5071992;28;19935;-56
2022/10/19 09:35:44;;;;;;;;;;;;;;;12.26;86.84;99062.50;5067111;28;19924;-56
2022/10/19 09:38:12;;;;;;;;;;;;;;;12.28;86.74;99063.03;5071267;28;19932;-56
2022/10/19 09:40:40;;;;;;;;;;;;;;;12.35;86.18;99066.19;5070863;28;19925;-56
2022/10/19 09:43:18;;;;;;;;;;;;;;;12.24;87.64;99072.88;5066203;28;19938;-56
2022/10/19 09:45:49;;;;;;;;;;;;;;;12.24;87.32;99062.78;5065240;28;19931;-64
2022/10/19 09:48:21;;;;;;;;;;;;;;;12.34;87.02;99075.47;5069723;28;19932;-57
2022/10/19 09:50:51;;;;;;;;;;;;;;;12.37;86.35;99065.91;5069156;28;20336;-56
2022/10/19 09:53:20;;;;;;;;;;;;;;;12.53;86.21;99062.66;5070896;28;19930;-57
2022/10/19 09:56:13;;;;;;;;;;;;;;;12.61;86.09;99057.63;5071448;28;19932;-56
2022/10/19 09:59:11;;;;;;;;;;;;;;;12.69;86.13;99055.03;5068746;28;19924;-59
2022/10/19 10:01:42;;;;;;;;;;;;;;;12.84;85.67;99048.53;5066809;28;20339;-56
2022/10/19 10:04:14;;;;;;;;;;;;;;;12.93;84.90;99046.72;5071682;28;19924;-56
2022/10/19 10:06:41;;;;;;;;;;;;;;;12.98;84.38;99043.91;5069659;28;19959;-56
2022/10/19 10:09:34;;;;;;;;;;;;;;;13.00;83.79;99043.63;5070057;28;20019;-56
2022/10/19 10:12:02;;;;;;;;;;;;;;;13.07;83.52;99046.78;5069921;28;20011;-56
2022/10/19 10:14:55;;;;;;;;;;;;;;;13.14;83.13;99044.47;5066359;28;19929;-56
2022/10/19 10:17:26;;;;;;;;;;;;;;;13.14;82.39;99046.38;5062932;28;20309;-56
2022/10/19 10:20:03;;;;;;;;;;;;;;;12.96;82.70;99042.59;5074481;28;20019;-57
2022/10/19 10:22:53;;;;;;;;;;;;;;;13.08;82.80;99041.00;5066510;28;20015;-56
2022/10/19 10:25:21;;;;;;;;;;;;;;;13.10;82.82;99044.28;5071159;28;19931;-56
2022/10/19 10:30:47;;;;;;;;;;;;;;;13.03;81.28;99035.66;5065228;28;19959;-56
2022/10/19 10:33:18;;;;;;;;;;;;;;;13.01;81.30;99037.88;5068187;28;19931;-56
2022/10/19 10:36:01;;;;;;;;;;;;;;;13.09;80.75;99039.91;5069651;28;19947;-56
2022/10/19 10:38:30;;;;;;;;;;;;;;;13.18;81.05;99033.75;5065192;28;19929;-56
2022/10/19 10:41:00;;;;;;;;;;;;;;;13.22;80.56;99027.44;5070118;28;20301;-57
2022/10/19 10:43:29;;;;;;;;;;;;;;;13.36;80.26;99024.72;5070805;28;20385;-56
2022/10/19 10:46:00;;;;;;;;;;;;;;;13.33;79.33;99022.59;5065637;28;19960;-55
2022/10/19 10:48:31;;;;;;;;;;;;;;;13.43;78.60;99024.31;5070088;28;20466;-56
2022/10/19 10:51:00;;;;;;;;;;;;;;;13.39;77.33;99026.84;5067361;28;20014;-56
2022/10/19 10:53:31;;;;;;;;;;;;;;;13.38;76.87;99018.97;5068086;28;19931;-56
2022/10/19 10:55:59;;;;;;;;;;;;;;;13.21;77.56;99014.91;5076904;28;19924;-56
2022/10/19 10:58:31;;;;;;;;;;;;;;;13.33;77.67;99007.03;5069773;28;20011;-56
2022/10/19 11:01:03;;;;;;;;;;;;;;;13.40;77.93;99000.34;5065929;28;19948;-56
2022/10/19 11:03:36;;;;;;;;;;;;;;;13.49;78.55;99009.47;5052875;28;20289;-56
2022/10/19 11:06:28;;;;;;;;;;;;;;;13.35;77.55;98998.53;5066749;28;19974;-56
2022/10/19 11:08:59;;;;;;;;;;;;;;;13.26;78.00;98995.72;5070801;28;20402;-56
2022/10/19 11:11:30;;;;;;;;;;;;;;;13.36;77.78;98991.94;5062424;28;20019;-56
2022/10/19 11:13:59;;;;;;;;;;;;;;;13.48;77.84;98992.28;5069055;28;19978;-56
2022/10/19 11:16:27;;;;;;;;;;;;;;;13.56;77.61;98994.28;5064332;28;19975;-56
2022/10/19 11:18:58;;;;;;;;;;;;;;;13.64;75.55;98987.31;5060373;28;19963;-56
2022/10/19 11:21:26;;;;;;;;;;;;;;;13.77;74.94;98981.00;5073391;28;20001;-56
2022/10/19 11:23:56;;;;;;;;;;;;;;;13.81;75.15;98983.94;5074688;28;19925;-56
2022/10/19 11:26:36;;;;;;;;;;;;;;;13.79;74.69;98983.44;5073578;28;19924;-56
2022/10/19 11:29:10;;;;;;;;;;;;;;;13.85;74.89;98977.56;5072109;28;19933;-56
2022/10/19 11:32:04;;;;;;;;;;;;;;;13.97;74.70;98968.84;5068739;28;19977;-56
2022/10/19 11:34:46;;;;;;;;;;;;;;;14.11;73.58;98972.34;5071045;28;19948;-56
2022/10/19 11:37:16;;;;;;;;;;;;;;;14.02;73.03;98979.66;5069597;28;20330;-56
2022/10/19 11:39:47;;;;;;;;;;;;;;;14.10;72.94;98967.97;5072407;28;19924;-56
2022/10/19 11:42:16;;;;;;;;;;;;;;;14.31;73.46;98967.50;5073971;28;19928;-56
2022/10/19 11:44:53;;;;;;;;;;;;;;;14.38;72.93;98965.13;5066969;28;19935;-56
2022/10/19 11:47:28;;;;;;;;;;;;;;;14.42;73.07;98953.28;5062213;28;20016;-56
2022/10/19 11:49:59;;;;;;;;;;;;;;;14.45;71.67;98959.25;5048233;28;19924;-56
2022/10/19 11:52:29;;;;;;;;;;;;;;;14.28;71.39;98965.41;5054149;28;19952;-56
2022/10/19 11:55:00;;;;;;;;;;;;;;;14.24;71.86;98951.53;5044907;28;19928;-56
2022/10/19 11:57:28;;;;;;;;;;;;;;;14.16;72.63;98947.59;5067255;28;20019;-56
2022/10/19 11:59:59;;;;;;;;;;;;;;;14.09;72.44;98939.03;5053795;28;19932;-56
2022/10/19 12:03:03;;;;;;;;;;;;;;;14.03;72.19;98940.28;5069037;28;19928;-56
2022/10/19 12:05:33;;;;;;;;;;;;;;;14.20;71.41;98936.06;5069935;28;19924;-56
2022/10/19 12:08:06;;;;;;;;;;;;;;;14.35;71.72;98939.25;5077708;28;19924;-56
2022/10/19 12:10:37;;;;;;;;;;;;;;;14.66;71.57;98935.78;5073167;28;20404;-56
2022/10/19 12:13:09;;;;;;;;;;;;;;;14.92;70.05;98935.91;5073071;28;20003;-56
2022/10/19 12:15:38;;;;;;;;;;;;;;;14.88;69.20;98933.00;5066518;28;19924;-56
2022/10/19 12:18:09;;;;;;;;;;;;;;;14.83;68.86;98926.84;5067437;28;20009;-56
2022/10/19 12:20:39;;;;;;;;;;;;;;;14.97;68.70;98926.75;5070345;28;19960;-56
2022/10/19 12:23:14;;;;;;;;;;;;;;;15.01;68.67;98917.59;5072325;28;20443;-56
2022/10/19 12:25:42;;;;;;;;;;;;;;;15.06;69.53;98920.19;5071021;28;20441;-56
2022/10/19 12:28:34;;;;;;;;;;;;;;;14.97;68.66;98911.16;5070455;28;19924;-56
2022/10/19 12:31:02;;;;;;;;;;;;;;;14.86;69.04;98901.59;5082062;28;20211;-56
2022/10/19 12:33:31;;;;;;;;;;;;;;;14.74;68.15;98899.44;5072555;28;19932;-56
2022/10/19 12:36:04;;;;;;;;;;;;;;;14.53;68.80;98907.38;5072431;28;19933;-56
2022/10/19 12:38:34;;;;;;;;;;;;;;;14.52;69.26;98900.28;5066265;28;19986;-56
2022/10/19 12:41:06;;;;;;;;;;;;;;;14.51;69.75;98897.88;5071874;28;20063;-56
2022/10/19 12:43:38;;;;;;;;;;;;;;;14.61;70.12;98897.63;5064236;28;20380;-56
2022/10/19 12:46:15;;;;;;;;;;;;;;;14.81;70.04;98894.34;5050365;28;19929;-57
2022/10/19 12:48:43;;;;;;;;;;;;;;;14.94;69.78;98887.16;5064710;28;19924;-56
2022/10/19 12:51:13;;;;;;;;;;;;;;;15.03;68.75;98879.78;5072023;28;19924;-56
2022/10/19 12:53:43;;;;;;;;;;;;;;;15.25;67.73;98878.06;5067240;28;19980;-56
2022/10/19 12:56:12;;;;;;;;;;;;;;;15.34;68.62;98876.16;5069153;28;19931;-56
2022/10/19 12:58:45;;;;;;;;;;;;;;;15.49;69.33;98872.94;5072207;28;20359;-60
2022/10/19 13:01:15;;;;;;;;;;;;;;;15.62;68.65;98871.22;5041060;28;19932;-56
2022/10/19 13:07:03;;;;;;;;;;;;;;;15.91;65.89;98867.84;5049004;28;19928;-56
2022/10/19 13:09:32;;;;;;;;;;;;;;;16.03;64.79;98853.50;5050376;28;19925;-56
2022/10/19 13:12:20;;;;;;;;;;;;;;;16.05;63.84;98862.22;5051732;28;19931;-56
2022/10/19 13:14:50;;;;;;;;;;;;;;;16.06;63.08;98858.34;5052344;28;20018;-56
2022/10/19 13:17:33;;;;;;;;;;;;;;;15.93;62.50;98840.94;5039287;28;19931;-56
2022/10/19 13:20:23;;;;;;;;;;;;;;;15.78;62.96;98855.94;5027750;28;19931;-56
2022/10/19 13:23:12;;;;;;;;;;;;;;;15.69;63.56;98841.44;5024628;28;19925;-56